sensor_id;sensor_type;location;lat;lon;timestamp;P1;durP1;ratioP1;P2;durP2;ratioP2
15116;SDS011;7659;51.038;13.786;2023-06-26T00:00:11;11.55;;;6.95;;
15116;SDS011;7659;51.038;13.786;2023-06-26T00:02:37;12.05;;;6.82;;
15116;SDS011;7659;51.038;13.786;2023-06-26T00:05:03;10.15;;;6.90;;
15116;SDS011;7659;51.038;13.786;2023-06-26T00:07:30;6.95;;;6.03;;
15116;SDS011;7659;51.038;13.786;2023-06-26T00:09:56;8.90;;;6.43;;
15116;SDS011;7659;51.038;13.786;2023-06-26T00:12:22;11.65;;;6.35;;
15116;SDS011;7659;51.038;13.786;2023-06-26T00:14:47;8.25;;;6.95;;
15116;SDS011;7659;51.038;13.786;2023-06-26T00:17:13;11.45;;;6.63;;
15116;SDS011;7659;51.038;13.786;2023-06-26T00:19:38;7.70;;;6.63;;
15116;SDS011;7659;51.038;13.786;2023-06-26T00:22:04;10.40;;;6.75;;
15116;SDS011;7659;51.038;13.786;2023-06-26T00:24:29;10.90;;;7.07;;
15116;SDS011;7659;51.038;13.786;2023-06-26T00:26:55;11.02;;;6.45;;
15116;SDS011;7659;51.038;13.786;2023-06-26T00:29:21;9.25;;;7.32;;
15116;SDS011;7659;51.038;13.786;2023-06-26T00:31:47;8.52;;;7.13;;
15116;SDS011;7659;51.038;13.786;2023-06-26T00:34:12;10.18;;;6.85;;
15116;SDS011;7659;51.038;13.786;2023-06-26T00:36:38;8.93;;;6.95;;
15116;SDS011;7659;51.038;13.786;2023-06-26T00:39:03;9.57;;;6.68;;
15116;SDS011;7659;51.038;13.786;2023-06-26T00:41:29;10.80;;;6.93;;
15116;SDS011;7659;51.038;13.786;2023-06-26T00:43:54;11.13;;;6.90;;
15116;SDS011;7659;51.038;13.786;2023-06-26T00:46:20;14.82;;;9.82;;
15116;SDS011;7659;51.038;13.786;2023-06-26T00:48:46;15.80;;;13.98;;
15116;SDS011;7659;51.038;13.786;2023-06-26T00:51:12;9.80;;;7.25;;
15116;SDS011;7659;51.038;13.786;2023-06-26T00:53:38;9.30;;;7.28;;
15116;SDS011;7659;51.038;13.786;2023-06-26T00:56:03;10.18;;;7.05;;
15116;SDS011;7659;51.038;13.786;2023-06-26T00:58:30;9.60;;;6.55;;
15116;SDS011;7659;51.038;13.786;2023-06-26T01:00:56;10.40;;;6.22;;
15116;SDS011;7659;51.038;13.786;2023-06-26T01:03:22;9.00;;;6.90;;
15116;SDS011;7659;51.038;13.786;2023-06-26T01:05:48;10.15;;;6.75;;
15116;SDS011;7659;51.038;13.786;2023-06-26T01:08:16;11.57;;;7.32;;
15116;SDS011;7659;51.038;13.786;2023-06-26T01:10:44;8.70;;;6.90;;
15116;SDS011;7659;51.038;13.786;2023-06-26T01:13:10;11.38;;;7.50;;
15116;SDS011;7659;51.038;13.786;2023-06-26T01:15:36;13.13;;;6.80;;
15116;SDS011;7659;51.038;13.786;2023-06-26T01:18:01;9.80;;;7.20;;
15116;SDS011;7659;51.038;13.786;2023-06-26T01:20:31;9.00;;;6.68;;
15116;SDS011;7659;51.038;13.786;2023-06-26T01:25:41;14.80;;;7.43;;
15116;SDS011;7659;51.038;13.786;2023-06-26T01:28:10;8.98;;;7.10;;
15116;SDS011;7659;51.038;13.786;2023-06-26T01:30:38;9.60;;;7.55;;
15116;SDS011;7659;51.038;13.786;2023-06-26T01:33:05;7.72;;;6.85;;
15116;SDS011;7659;51.038;13.786;2023-06-26T01:35:30;8.98;;;6.90;;
15116;SDS011;7659;51.038;13.786;2023-06-26T01:38:12;11.30;;;7.30;;
15116;SDS011;7659;51.038;13.786;2023-06-26T01:40:38;14.60;;;7.43;;
15116;SDS011;7659;51.038;13.786;2023-06-26T01:43:04;10.68;;;6.85;;
15116;SDS011;7659;51.038;13.786;2023-06-26T01:45:33;7.82;;;6.63;;
15116;SDS011;7659;51.038;13.786;2023-06-26T01:47:58;10.73;;;7.72;;
15116;SDS011;7659;51.038;13.786;2023-06-26T01:50:26;10.68;;;7.72;;
15116;SDS011;7659;51.038;13.786;2023-06-26T01:57:48;11.15;;;7.70;;
15116;SDS011;7659;51.038;13.786;2023-06-26T02:00:15;9.45;;;7.45;;
15116;SDS011;7659;51.038;13.786;2023-06-26T02:02:43;11.50;;;7.45;;
15116;SDS011;7659;51.038;13.786;2023-06-26T02:05:12;9.90;;;7.40;;
15116;SDS011;7659;51.038;13.786;2023-06-26T02:07:38;11.73;;;7.95;;
15116;SDS011;7659;51.038;13.786;2023-06-26T02:10:03;10.40;;;7.45;;
15116;SDS011;7659;51.038;13.786;2023-06-26T02:12:31;10.98;;;7.78;;
15116;SDS011;7659;51.038;13.786;2023-06-26T02:14:57;10.43;;;7.63;;
15116;SDS011;7659;51.038;13.786;2023-06-26T02:17:23;9.32;;;7.72;;
15116;SDS011;7659;51.038;13.786;2023-06-26T02:19:49;9.45;;;7.95;;
15116;SDS011;7659;51.038;13.786;2023-06-26T02:22:15;11.48;;;7.03;;
15116;SDS011;7659;51.038;13.786;2023-06-26T02:24:41;9.95;;;7.55;;
15116;SDS011;7659;51.038;13.786;2023-06-26T02:27:07;9.77;;;7.55;;
15116;SDS011;7659;51.038;13.786;2023-06-26T02:29:35;12.25;;;7.72;;
15116;SDS011;7659;51.038;13.786;2023-06-26T02:32:01;14.80;;;8.00;;
15116;SDS011;7659;51.038;13.786;2023-06-26T02:34:26;10.60;;;7.70;;
15116;SDS011;7659;51.038;13.786;2023-06-26T02:36:52;11.90;;;8.52;;
15116;SDS011;7659;51.038;13.786;2023-06-26T02:39:20;12.77;;;8.07;;
15116;SDS011;7659;51.038;13.786;2023-06-26T02:41:46;13.50;;;8.30;;
15116;SDS011;7659;51.038;13.786;2023-06-26T02:44:12;9.50;;;7.30;;
15116;SDS011;7659;51.038;13.786;2023-06-26T02:46:38;10.18;;;7.78;;
15116;SDS011;7659;51.038;13.786;2023-06-26T02:49:04;13.18;;;7.97;;
15116;SDS011;7659;51.038;13.786;2023-06-26T02:51:31;9.77;;;7.57;;
15116;SDS011;7659;51.038;13.786;2023-06-26T02:53:58;13.38;;;7.93;;
15116;SDS011;7659;51.038;13.786;2023-06-26T02:56:23;10.57;;;7.43;;
15116;SDS011;7659;51.038;13.786;2023-06-26T02:58:49;14.27;;;8.15;;
15116;SDS011;7659;51.038;13.786;2023-06-26T03:01:14;10.50;;;8.07;;
15116;SDS011;7659;51.038;13.786;2023-06-26T03:03:40;11.23;;;8.00;;
15116;SDS011;7659;51.038;13.786;2023-06-26T03:06:09;11.25;;;7.90;;
15116;SDS011;7659;51.038;13.786;2023-06-26T03:08:36;12.80;;;7.55;;
15116;SDS011;7659;51.038;13.786;2023-06-26T03:11:02;10.93;;;7.93;;
15116;SDS011;7659;51.038;13.786;2023-06-26T03:13:27;9.55;;;7.47;;
15116;SDS011;7659;51.038;13.786;2023-06-26T03:15:52;15.30;;;8.25;;
15116;SDS011;7659;51.038;13.786;2023-06-26T03:18:18;14.30;;;8.40;;
15116;SDS011;7659;51.038;13.786;2023-06-26T03:20:44;12.13;;;7.90;;
15116;SDS011;7659;51.038;13.786;2023-06-26T03:23:09;13.00;;;7.97;;
15116;SDS011;7659;51.038;13.786;2023-06-26T03:25:35;11.02;;;8.13;;
15116;SDS011;7659;51.038;13.786;2023-06-26T03:28:13;10.00;;;8.35;;
15116;SDS011;7659;51.038;13.786;2023-06-26T03:30:39;12.63;;;8.18;;
15116;SDS011;7659;51.038;13.786;2023-06-26T03:33:05;12.63;;;8.13;;
15116;SDS011;7659;51.038;13.786;2023-06-26T03:35:31;10.68;;;8.40;;
15116;SDS011;7659;51.038;13.786;2023-06-26T03:37:57;10.55;;;8.18;;
15116;SDS011;7659;51.038;13.786;2023-06-26T03:40:23;11.57;;;8.20;;
15116;SDS011;7659;51.038;13.786;2023-06-26T03:42:48;13.00;;;8.57;;
15116;SDS011;7659;51.038;13.786;2023-06-26T03:45:14;10.80;;;8.38;;
15116;SDS011;7659;51.038;13.786;2023-06-26T03:47:42;11.15;;;8.45;;
15116;SDS011;7659;51.038;13.786;2023-06-26T03:50:08;10.23;;;8.63;;
15116;SDS011;7659;51.038;13.786;2023-06-26T03:52:34;11.13;;;8.20;;
15116;SDS011;7659;51.038;13.786;2023-06-26T03:54:59;12.70;;;8.50;;
15116;SDS011;7659;51.038;13.786;2023-06-26T03:57:25;10.57;;;7.95;;
15116;SDS011;7659;51.038;13.786;2023-06-26T03:59:52;14.45;;;7.85;;
15116;SDS011;7659;51.038;13.786;2023-06-26T04:02:17;13.52;;;8.43;;
15116;SDS011;7659;51.038;13.786;2023-06-26T04:04:43;19.92;;;8.15;;
15116;SDS011;7659;51.038;13.786;2023-06-26T04:07:10;10.63;;;7.75;;
15116;SDS011;7659;51.038;13.786;2023-06-26T04:09:36;10.48;;;7.70;;
15116;SDS011;7659;51.038;13.786;2023-06-26T04:12:02;12.77;;;8.02;;
15116;SDS011;7659;51.038;13.786;2023-06-26T04:14:27;12.13;;;7.53;;
15116;SDS011;7659;51.038;13.786;2023-06-26T04:16:53;13.82;;;7.80;;
15116;SDS011;7659;51.038;13.786;2023-06-26T04:19:18;8.45;;;7.15;;
15116;SDS011;7659;51.038;13.786;2023-06-26T04:21:44;11.55;;;7.60;;
15116;SDS011;7659;51.038;13.786;2023-06-26T04:24:10;12.95;;;7.63;;
15116;SDS011;7659;51.038;13.786;2023-06-26T04:26:35;17.45;;;7.90;;
15116;SDS011;7659;51.038;13.786;2023-06-26T04:29:01;9.82;;;7.28;;
15116;SDS011;7659;51.038;13.786;2023-06-26T04:31:26;13.48;;;8.30;;
15116;SDS011;7659;51.038;13.786;2023-06-26T04:33:52;12.07;;;7.55;;
15116;SDS011;7659;51.038;13.786;2023-06-26T04:36:20;9.32;;;7.60;;
15116;SDS011;7659;51.038;13.786;2023-06-26T04:38:45;9.25;;;7.45;;
15116;SDS011;7659;51.038;13.786;2023-06-26T04:41:11;9.82;;;7.57;;
15116;SDS011;7659;51.038;13.786;2023-06-26T04:43:36;10.35;;;7.15;;
15116;SDS011;7659;51.038;13.786;2023-06-26T04:46:02;9.85;;;6.97;;
15116;SDS011;7659;51.038;13.786;2023-06-26T04:48:28;9.73;;;7.18;;
15116;SDS011;7659;51.038;13.786;2023-06-26T04:50:54;8.57;;;6.88;;
15116;SDS011;7659;51.038;13.786;2023-06-26T04:53:21;9.73;;;6.80;;
15116;SDS011;7659;51.038;13.786;2023-06-26T04:55:51;8.48;;;6.78;;
15116;SDS011;7659;51.038;13.786;2023-06-26T04:58:16;9.98;;;6.80;;
15116;SDS011;7659;51.038;13.786;2023-06-26T05:00:42;10.00;;;7.07;;
15116;SDS011;7659;51.038;13.786;2023-06-26T05:03:11;12.93;;;7.40;;
15116;SDS011;7659;51.038;13.786;2023-06-26T05:05:37;11.57;;;7.50;;
15116;SDS011;7659;51.038;13.786;2023-06-26T05:08:16;11.82;;;7.40;;
15116;SDS011;7659;51.038;13.786;2023-06-26T05:10:42;10.82;;;7.57;;
15116;SDS011;7659;51.038;13.786;2023-06-26T05:13:07;10.88;;;7.30;;
15116;SDS011;7659;51.038;13.786;2023-06-26T05:15:33;9.48;;;6.85;;
15116;SDS011;7659;51.038;13.786;2023-06-26T05:17:58;10.73;;;7.22;;
15116;SDS011;7659;51.038;13.786;2023-06-26T05:20:24;11.55;;;7.28;;
15116;SDS011;7659;51.038;13.786;2023-06-26T05:22:49;7.20;;;6.13;;
15116;SDS011;7659;51.038;13.786;2023-06-26T05:25:15;12.32;;;7.32;;
15116;SDS011;7659;51.038;13.786;2023-06-26T05:27:40;12.43;;;6.47;;
15116;SDS011;7659;51.038;13.786;2023-06-26T05:30:06;13.63;;;6.72;;
15116;SDS011;7659;51.038;13.786;2023-06-26T05:32:33;9.20;;;6.88;;
15116;SDS011;7659;51.038;13.786;2023-06-26T05:34:59;10.88;;;6.38;;
15116;SDS011;7659;51.038;13.786;2023-06-26T05:37:26;11.05;;;6.45;;
15116;SDS011;7659;51.038;13.786;2023-06-26T05:39:53;11.05;;;6.78;;
15116;SDS011;7659;51.038;13.786;2023-06-26T05:42:19;9.85;;;6.47;;
15116;SDS011;7659;51.038;13.786;2023-06-26T05:44:44;9.80;;;6.85;;
15116;SDS011;7659;51.038;13.786;2023-06-26T05:47:11;7.85;;;6.35;;
15116;SDS011;7659;51.038;13.786;2023-06-26T05:49:36;8.07;;;6.28;;
15116;SDS011;7659;51.038;13.786;2023-06-26T05:52:02;9.98;;;6.30;;
15116;SDS011;7659;51.038;13.786;2023-06-26T05:54:27;7.65;;;6.50;;
15116;SDS011;7659;51.038;13.786;2023-06-26T05:56:54;9.93;;;6.63;;
15116;SDS011;7659;51.038;13.786;2023-06-26T05:59:21;9.95;;;6.40;;
15116;SDS011;7659;51.038;13.786;2023-06-26T06:01:47;8.70;;;5.97;;
15116;SDS011;7659;51.038;13.786;2023-06-26T06:04:12;7.57;;;5.65;;
15116;SDS011;7659;51.038;13.786;2023-06-26T06:06:38;13.82;;;5.93;;
15116;SDS011;7659;51.038;13.786;2023-06-26T06:09:03;7.72;;;5.68;;
15116;SDS011;7659;51.038;13.786;2023-06-26T06:11:29;8.25;;;6.03;;
15116;SDS011;7659;51.038;13.786;2023-06-26T06:13:54;13.15;;;5.00;;
15116;SDS011;7659;51.038;13.786;2023-06-26T06:16:19;8.65;;;6.15;;
15116;SDS011;7659;51.038;13.786;2023-06-26T06:18:45;6.20;;;5.60;;
15116;SDS011;7659;51.038;13.786;2023-06-26T06:21:10;8.55;;;5.60;;
15116;SDS011;7659;51.038;13.786;2023-06-26T06:23:36;8.48;;;5.80;;
15116;SDS011;7659;51.038;13.786;2023-06-26T06:26:03;11.20;;;6.07;;
15116;SDS011;7659;51.038;13.786;2023-06-26T06:28:29;8.57;;;5.43;;
15116;SDS011;7659;51.038;13.786;2023-06-26T06:30:54;7.43;;;5.53;;
15116;SDS011;7659;51.038;13.786;2023-06-26T06:33:19;8.40;;;5.18;;
15116;SDS011;7659;51.038;13.786;2023-06-26T06:35:45;9.15;;;5.90;;
15116;SDS011;7659;51.038;13.786;2023-06-26T06:38:10;7.28;;;5.78;;
15116;SDS011;7659;51.038;13.786;2023-06-26T06:40:36;10.48;;;5.90;;
15116;SDS011;7659;51.038;13.786;2023-06-26T06:43:01;11.98;;;6.32;;
15116;SDS011;7659;51.038;13.786;2023-06-26T06:45:27;11.00;;;5.60;;
15116;SDS011;7659;51.038;13.786;2023-06-26T06:47:52;8.85;;;5.70;;
15116;SDS011;7659;51.038;13.786;2023-06-26T06:50:18;8.73;;;5.30;;
15116;SDS011;7659;51.038;13.786;2023-06-26T06:52:43;8.00;;;5.05;;
15116;SDS011;7659;51.038;13.786;2023-06-26T06:55:09;8.48;;;5.63;;
15116;SDS011;7659;51.038;13.786;2023-06-26T06:57:35;10.65;;;5.85;;
15116;SDS011;7659;51.038;13.786;2023-06-26T07:00:09;10.02;;;5.35;;
15116;SDS011;7659;51.038;13.786;2023-06-26T07:02:36;8.52;;;5.18;;
15116;SDS011;7659;51.038;13.786;2023-06-26T07:05:02;7.55;;;4.93;;
15116;SDS011;7659;51.038;13.786;2023-06-26T07:07:29;5.80;;;5.20;;
15116;SDS011;7659;51.038;13.786;2023-06-26T07:09:56;6.03;;;4.72;;
15116;SDS011;7659;51.038;13.786;2023-06-26T07:12:22;8.60;;;5.25;;
15116;SDS011;7659;51.038;13.786;2023-06-26T07:14:47;12.93;;;4.97;;
15116;SDS011;7659;51.038;13.786;2023-06-26T07:17:13;7.35;;;5.00;;
15116;SDS011;7659;51.038;13.786;2023-06-26T07:19:38;5.82;;;5.05;;
15116;SDS011;7659;51.038;13.786;2023-06-26T07:22:03;5.97;;;4.93;;
15116;SDS011;7659;51.038;13.786;2023-06-26T07:24:29;6.90;;;4.78;;
15116;SDS011;7659;51.038;13.786;2023-06-26T07:26:54;7.15;;;4.97;;
15116;SDS011;7659;51.038;13.786;2023-06-26T07:29:20;5.78;;;4.68;;
15116;SDS011;7659;51.038;13.786;2023-06-26T07:31:46;7.40;;;5.22;;
15116;SDS011;7659;51.038;13.786;2023-06-26T07:34:13;8.80;;;4.65;;
15116;SDS011;7659;51.038;13.786;2023-06-26T07:36:38;5.47;;;4.72;;
15116;SDS011;7659;51.038;13.786;2023-06-26T07:39:04;13.60;;;5.07;;
15116;SDS011;7659;51.038;13.786;2023-06-26T07:41:29;8.80;;;5.43;;
15116;SDS011;7659;51.038;13.786;2023-06-26T07:43:56;8.38;;;5.45;;
15116;SDS011;7659;51.038;13.786;2023-06-26T07:46:22;7.95;;;5.60;;
15116;SDS011;7659;51.038;13.786;2023-06-26T07:48:47;8.68;;;4.95;;
15116;SDS011;7659;51.038;13.786;2023-06-26T07:51:13;6.47;;;4.85;;
15116;SDS011;7659;51.038;13.786;2023-06-26T07:53:38;9.25;;;5.38;;
15116;SDS011;7659;51.038;13.786;2023-06-26T07:56:04;9.02;;;5.60;;
15116;SDS011;7659;51.038;13.786;2023-06-26T07:58:29;10.77;;;5.45;;
15116;SDS011;7659;51.038;13.786;2023-06-26T08:00:55;6.60;;;5.28;;
15116;SDS011;7659;51.038;13.786;2023-06-26T08:03:20;8.55;;;4.80;;
15116;SDS011;7659;51.038;13.786;2023-06-26T08:05:46;6.68;;;4.82;;
15116;SDS011;7659;51.038;13.786;2023-06-26T08:08:12;5.57;;;4.60;;
15116;SDS011;7659;51.038;13.786;2023-06-26T08:10:37;7.05;;;4.70;;
15116;SDS011;7659;51.038;13.786;2023-06-26T08:13:03;6.53;;;4.82;;
15116;SDS011;7659;51.038;13.786;2023-06-26T08:15:28;8.60;;;4.82;;
15116;SDS011;7659;51.038;13.786;2023-06-26T08:17:53;5.47;;;4.63;;
15116;SDS011;7659;51.038;13.786;2023-06-26T08:20:19;5.63;;;4.63;;
15116;SDS011;7659;51.038;13.786;2023-06-26T08:22:45;5.13;;;4.57;;
15116;SDS011;7659;51.038;13.786;2023-06-26T08:25:13;7.65;;;4.72;;
15116;SDS011;7659;51.038;13.786;2023-06-26T08:27:38;5.80;;;4.93;;
15116;SDS011;7659;51.038;13.786;2023-06-26T08:30:04;7.25;;;5.40;;
15116;SDS011;7659;51.038;13.786;2023-06-26T08:32:30;6.35;;;5.30;;
15116;SDS011;7659;51.038;13.786;2023-06-26T08:34:55;7.40;;;4.65;;
15116;SDS011;7659;51.038;13.786;2023-06-26T08:37:21;6.13;;;4.63;;
15116;SDS011;7659;51.038;13.786;2023-06-26T08:39:47;6.60;;;4.68;;
15116;SDS011;7659;51.038;13.786;2023-06-26T08:42:12;9.73;;;4.38;;
15116;SDS011;7659;51.038;13.786;2023-06-26T08:44:38;6.63;;;4.57;;
15116;SDS011;7659;51.038;13.786;2023-06-26T08:47:03;5.80;;;4.63;;
15116;SDS011;7659;51.038;13.786;2023-06-26T08:49:33;6.15;;;4.45;;
15116;SDS011;7659;51.038;13.786;2023-06-26T08:52:15;6.00;;;4.75;;
15116;SDS011;7659;51.038;13.786;2023-06-26T08:54:43;9.57;;;4.93;;
15116;SDS011;7659;51.038;13.786;2023-06-26T08:57:10;5.00;;;4.45;;
15116;SDS011;7659;51.038;13.786;2023-06-26T08:59:36;5.97;;;4.47;;
15116;SDS011;7659;51.038;13.786;2023-06-26T09:02:01;6.07;;;4.53;;
15116;SDS011;7659;51.038;13.786;2023-06-26T09:04:28;7.80;;;4.97;;
15116;SDS011;7659;51.038;13.786;2023-06-26T09:06:53;5.43;;;4.88;;
15116;SDS011;7659;51.038;13.786;2023-06-26T09:09:19;7.82;;;4.75;;
15116;SDS011;7659;51.038;13.786;2023-06-26T09:11:45;7.63;;;4.70;;
15116;SDS011;7659;51.038;13.786;2023-06-26T09:14:11;8.18;;;4.90;;
15116;SDS011;7659;51.038;13.786;2023-06-26T09:16:40;6.20;;;4.60;;
15116;SDS011;7659;51.038;13.786;2023-06-26T09:19:10;5.32;;;4.82;;
15116;SDS011;7659;51.038;13.786;2023-06-26T09:21:37;6.47;;;5.18;;
15116;SDS011;7659;51.038;13.786;2023-06-26T09:24:03;5.95;;;5.00;;
15116;SDS011;7659;51.038;13.786;2023-06-26T09:26:28;5.85;;;4.85;;
15116;SDS011;7659;51.038;13.786;2023-06-26T09:28:54;8.65;;;5.15;;
15116;SDS011;7659;51.038;13.786;2023-06-26T09:31:20;7.85;;;5.40;;
15116;SDS011;7659;51.038;13.786;2023-06-26T09:33:46;8.55;;;5.10;;
15116;SDS011;7659;51.038;13.786;2023-06-26T09:36:18;6.70;;;4.40;;
15116;SDS011;7659;51.038;13.786;2023-06-26T09:38:44;7.05;;;4.72;;
15116;SDS011;7659;51.038;13.786;2023-06-26T09:41:10;6.35;;;4.70;;
15116;SDS011;7659;51.038;13.786;2023-06-26T09:43:45;6.47;;;4.97;;
15116;SDS011;7659;51.038;13.786;2023-06-26T09:46:13;5.05;;;4.55;;
15116;SDS011;7659;51.038;13.786;2023-06-26T09:48:40;5.65;;;4.50;;
15116;SDS011;7659;51.038;13.786;2023-06-26T09:51:05;5.63;;;4.88;;
15116;SDS011;7659;51.038;13.786;2023-06-26T09:53:31;6.93;;;4.47;;
15116;SDS011;7659;51.038;13.786;2023-06-26T09:56:04;5.32;;;4.82;;
15116;SDS011;7659;51.038;13.786;2023-06-26T09:58:30;5.95;;;4.72;;
15116;SDS011;7659;51.038;13.786;2023-06-26T10:00:55;5.15;;;4.65;;
15116;SDS011;7659;51.038;13.786;2023-06-26T10:03:20;6.70;;;4.90;;
15116;SDS011;7659;51.038;13.786;2023-06-26T10:05:46;5.13;;;4.63;;
15116;SDS011;7659;51.038;13.786;2023-06-26T10:08:13;6.25;;;5.03;;
15116;SDS011;7659;51.038;13.786;2023-06-26T10:10:39;4.80;;;4.00;;
15116;SDS011;7659;51.038;13.786;2023-06-26T10:13:11;7.60;;;4.28;;
15116;SDS011;7659;51.038;13.786;2023-06-26T10:15:39;5.68;;;4.43;;
15116;SDS011;7659;51.038;13.786;2023-06-26T10:18:05;6.95;;;4.35;;
15116;SDS011;7659;51.038;13.786;2023-06-26T10:20:31;5.07;;;4.28;;
15116;SDS011;7659;51.038;13.786;2023-06-26T10:22:57;6.72;;;4.65;;
15116;SDS011;7659;51.038;13.786;2023-06-26T10:25:25;8.57;;;4.00;;
15116;SDS011;7659;51.038;13.786;2023-06-26T10:27:55;4.65;;;4.13;;
15116;SDS011;7659;51.038;13.786;2023-06-26T10:30:23;4.20;;;3.80;;
15116;SDS011;7659;51.038;13.786;2023-06-26T10:32:50;4.15;;;3.70;;
15116;SDS011;7659;51.038;13.786;2023-06-26T10:35:16;4.15;;;3.75;;
15116;SDS011;7659;51.038;13.786;2023-06-26T10:40:11;6.32;;;3.78;;
15116;SDS011;7659;51.038;13.786;2023-06-26T10:42:37;5.03;;;3.92;;
15116;SDS011;7659;51.038;13.786;2023-06-26T10:45:36;4.72;;;3.97;;
15116;SDS011;7659;51.038;13.786;2023-06-26T10:47:54;4.90;;;3.95;;
15116;SDS011;7659;51.038;13.786;2023-06-26T10:50:26;5.88;;;4.40;;
15116;SDS011;7659;51.038;13.786;2023-06-26T10:55:43;5.03;;;3.95;;
15116;SDS011;7659;51.038;13.786;2023-06-26T11:01:13;4.32;;;3.92;;
15116;SDS011;7659;51.038;13.786;2023-06-26T11:03:39;4.60;;;3.78;;
15116;SDS011;7659;51.038;13.786;2023-06-26T11:06:09;4.35;;;3.92;;
15116;SDS011;7659;51.038;13.786;2023-06-26T11:08:45;6.40;;;4.35;;
15116;SDS011;7659;51.038;13.786;2023-06-26T11:11:12;6.70;;;4.13;;
15116;SDS011;7659;51.038;13.786;2023-06-26T11:13:37;5.25;;;4.40;;
15116;SDS011;7659;51.038;13.786;2023-06-26T11:16:04;5.05;;;4.00;;
15116;SDS011;7659;51.038;13.786;2023-06-26T11:18:31;5.00;;;4.30;;
15116;SDS011;7659;51.038;13.786;2023-06-26T11:21:06;4.25;;;3.85;;
15116;SDS011;7659;51.038;13.786;2023-06-26T11:23:32;7.03;;;4.00;;
15116;SDS011;7659;51.038;13.786;2023-06-26T11:26:12;4.20;;;3.80;;
15116;SDS011;7659;51.038;13.786;2023-06-26T11:28:37;4.72;;;4.32;;
15116;SDS011;7659;51.038;13.786;2023-06-26T11:31:03;6.70;;;4.13;;
15116;SDS011;7659;51.038;13.786;2023-06-26T11:33:29;6.63;;;4.00;;
15116;SDS011;7659;51.038;13.786;2023-06-26T11:35:54;8.02;;;4.10;;
15116;SDS011;7659;51.038;13.786;2023-06-26T11:38:20;6.90;;;4.20;;
15116;SDS011;7659;51.038;13.786;2023-06-26T11:40:45;4.05;;;3.65;;
15116;SDS011;7659;51.038;13.786;2023-06-26T11:43:11;6.70;;;3.60;;
15116;SDS011;7659;51.038;13.786;2023-06-26T11:45:36;4.82;;;3.72;;
15116;SDS011;7659;51.038;13.786;2023-06-26T11:48:02;4.22;;;3.65;;
15116;SDS011;7659;51.038;13.786;2023-06-26T11:50:27;6.53;;;4.38;;
15116;SDS011;7659;51.038;13.786;2023-06-26T11:52:57;7.65;;;4.03;;
15116;SDS011;7659;51.038;13.786;2023-06-26T11:55:23;6.40;;;4.28;;
15116;SDS011;7659;51.038;13.786;2023-06-26T11:57:49;5.70;;;3.80;;
15116;SDS011;7659;51.038;13.786;2023-06-26T12:00:15;4.43;;;4.03;;
15116;SDS011;7659;51.038;13.786;2023-06-26T12:02:42;7.57;;;3.85;;
15116;SDS011;7659;51.038;13.786;2023-06-26T12:05:08;5.88;;;4.05;;
15116;SDS011;7659;51.038;13.786;2023-06-26T12:07:34;5.10;;;4.13;;
15116;SDS011;7659;51.038;13.786;2023-06-26T12:10:02;4.07;;;3.67;;
15116;SDS011;7659;51.038;13.786;2023-06-26T12:12:27;5.22;;;3.83;;
15116;SDS011;7659;51.038;13.786;2023-06-26T12:14:53;7.35;;;3.75;;
15116;SDS011;7659;51.038;13.786;2023-06-26T12:17:21;7.90;;;3.78;;
15116;SDS011;7659;51.038;13.786;2023-06-26T12:19:47;4.53;;;3.65;;
15116;SDS011;7659;51.038;13.786;2023-06-26T12:22:16;4.53;;;4.05;;
15116;SDS011;7659;51.038;13.786;2023-06-26T12:24:42;3.72;;;3.40;;
15116;SDS011;7659;51.038;13.786;2023-06-26T12:27:09;3.92;;;3.63;;
15116;SDS011;7659;51.038;13.786;2023-06-26T12:29:35;4.30;;;3.80;;
15116;SDS011;7659;51.038;13.786;2023-06-26T12:32:00;4.20;;;3.80;;
15116;SDS011;7659;51.038;13.786;2023-06-26T12:34:27;8.45;;;3.47;;
15116;SDS011;7659;51.038;13.786;2023-06-26T12:36:53;4.25;;;3.80;;
15116;SDS011;7659;51.038;13.786;2023-06-26T12:39:19;4.35;;;3.95;;
15116;SDS011;7659;51.038;13.786;2023-06-26T12:41:53;3.75;;;3.40;;
15116;SDS011;7659;51.038;13.786;2023-06-26T12:44:26;4.63;;;3.60;;
15116;SDS011;7659;51.038;13.786;2023-06-26T12:46:58;5.03;;;3.58;;
15116;SDS011;7659;51.038;13.786;2023-06-26T12:49:39;5.78;;;3.78;;
15116;SDS011;7659;51.038;13.786;2023-06-26T12:52:06;4.22;;;3.78;;
15116;SDS011;7659;51.038;13.786;2023-06-26T12:54:35;4.05;;;3.58;;
15116;SDS011;7659;51.038;13.786;2023-06-26T12:57:01;7.68;;;3.72;;
15116;SDS011;7659;51.038;13.786;2023-06-26T12:59:29;5.25;;;4.20;;
15116;SDS011;7659;51.038;13.786;2023-06-26T13:01:55;3.75;;;3.35;;
15116;SDS011;7659;51.038;13.786;2023-06-26T13:04:20;4.28;;;3.88;;
15116;SDS011;7659;51.038;13.786;2023-06-26T13:06:46;6.28;;;3.88;;
15116;SDS011;7659;51.038;13.786;2023-06-26T13:09:12;5.15;;;3.40;;
15116;SDS011;7659;51.038;13.786;2023-06-26T13:11:38;4.32;;;3.92;;
15116;SDS011;7659;51.038;13.786;2023-06-26T13:14:03;6.00;;;3.90;;
15116;SDS011;7659;51.038;13.786;2023-06-26T13:16:29;6.90;;;4.30;;
15116;SDS011;7659;51.038;13.786;2023-06-26T13:18:55;4.53;;;4.13;;
15116;SDS011;7659;51.038;13.786;2023-06-26T13:21:21;10.05;;;3.97;;
15116;SDS011;7659;51.038;13.786;2023-06-26T13:23:47;5.63;;;3.53;;
15116;SDS011;7659;51.038;13.786;2023-06-26T13:26:12;4.28;;;3.88;;
15116;SDS011;7659;51.038;13.786;2023-06-26T13:28:38;6.03;;;4.30;;
15116;SDS011;7659;51.038;13.786;2023-06-26T13:31:03;4.20;;;3.80;;
15116;SDS011;7659;51.038;13.786;2023-06-26T13:33:29;5.53;;;3.47;;
15116;SDS011;7659;51.038;13.786;2023-06-26T13:35:55;4.25;;;3.13;;
15116;SDS011;7659;51.038;13.786;2023-06-26T13:38:21;3.95;;;3.58;;
15116;SDS011;7659;51.038;13.786;2023-06-26T13:40:50;3.53;;;3.13;;
15116;SDS011;7659;51.038;13.786;2023-06-26T13:43:16;3.33;;;3.03;;
15116;SDS011;7659;51.038;13.786;2023-06-26T13:45:42;3.42;;;3.13;;
15116;SDS011;7659;51.038;13.786;2023-06-26T13:48:07;4.20;;;3.10;;
15116;SDS011;7659;51.038;13.786;2023-06-26T13:50:33;4.05;;;2.75;;
15116;SDS011;7659;51.038;13.786;2023-06-26T13:52:59;2.72;;;2.53;;
15116;SDS011;7659;51.038;13.786;2023-06-26T13:55:25;3.20;;;2.83;;
15116;SDS011;7659;51.038;13.786;2023-06-26T13:57:50;3.28;;;2.97;;
15116;SDS011;7659;51.038;13.786;2023-06-26T14:00:16;3.75;;;3.03;;
15116;SDS011;7659;51.038;13.786;2023-06-26T14:02:45;3.85;;;3.55;;
15116;SDS011;7659;51.038;13.786;2023-06-26T14:05:11;4.90;;;4.50;;
15116;SDS011;7659;51.038;13.786;2023-06-26T14:07:36;4.68;;;4.38;;
15116;SDS011;7659;51.038;13.786;2023-06-26T14:10:03;6.43;;;5.60;;
15116;SDS011;7659;51.038;13.786;2023-06-26T14:12:30;5.90;;;5.40;;
15116;SDS011;7659;51.038;13.786;2023-06-26T14:14:58;6.38;;;5.88;;
15116;SDS011;7659;51.038;13.786;2023-06-26T14:17:27;8.52;;;7.32;;
15116;SDS011;7659;51.038;13.786;2023-06-26T14:19:52;7.25;;;6.85;;
15116;SDS011;7659;51.038;13.786;2023-06-26T14:22:19;7.30;;;6.50;;
15116;SDS011;7659;51.038;13.786;2023-06-26T14:24:45;6.28;;;5.88;;
15116;SDS011;7659;51.038;13.786;2023-06-26T14:27:10;6.30;;;5.90;;
15116;SDS011;7659;51.038;13.786;2023-06-26T14:29:36;4.60;;;4.15;;
15116;SDS011;7659;51.038;13.786;2023-06-26T14:32:02;4.25;;;3.75;;
15116;SDS011;7659;51.038;13.786;2023-06-26T14:34:28;4.55;;;4.20;;
15116;SDS011;7659;51.038;13.786;2023-06-26T14:36:54;3.90;;;3.60;;
15116;SDS011;7659;51.038;13.786;2023-06-26T14:39:19;3.58;;;3.30;;
15116;SDS011;7659;51.038;13.786;2023-06-26T14:41:45;3.83;;;3.03;;
15116;SDS011;7659;51.038;13.786;2023-06-26T14:44:10;3.35;;;3.15;;
15116;SDS011;7659;51.038;13.786;2023-06-26T14:46:36;5.05;;;3.83;;
15116;SDS011;7659;51.038;13.786;2023-06-26T14:49:02;6.38;;;4.00;;
15116;SDS011;7659;51.038;13.786;2023-06-26T14:51:28;5.03;;;4.72;;
15116;SDS011;7659;51.038;13.786;2023-06-26T14:53:56;5.72;;;4.85;;